Terminal Aerodrome Forecast
Issued by NWS

Home | Current Version | Previous Version | Text Only | Print | Product List | Glossary On
Versions: 1 2 3 4 5 6 7 8 9 10 11 12 13 14 15 16 17
000
FTUS42 KFFC 031725
TAFRYY
TAF
KRYY 031725Z 0318/0418 13005KT P6SM VCSH SCT030 BKN050
      TEMPO 0319/0322 VRB15G25KT 5SM TSRA BKN045CB
     FM040000 00000KT P6SM SCT150
     FM040500 11003KT P6SM SCT050
     FM040900 00000KT P6SM BKN015
     FM041400 09004KT P6SM BKN030=

USA.gov is the U.S. government's official web portal to all federal, state and local government web resources and services.